< Cyclone 199410 1994 Season Cyclone 199501 >
Cyclone 199411 (WILLY)
General InformationTrack Information on Google MapsDetailed Wind InformationList of All Images || ResourceGoogle EarthGE AnimationAtom FeedGeoJSON
Detalied Best Track (Time Zone = UTC)
Year Month Day Hour Lat. Long. Pressure (hPa) Wind (kt) Class Image Chart
1994 4 27 12 -6.7 93.7 1005 19 2 Image --
1994 4 27 18 -7.2 94.0 1005 19 2 Image --
1994 4 28 00 -7.6 94.3 1000 27 2 Image --
1994 4 28 06 -8.0 94.4 1000 27 2 Image --
1994 4 28 12 -8.6 95.0 995 35 3 Image --
1994 4 28 18 -9.1 95.3 990 41 3 Image --
1994 4 28 21 -9.4 95.4 985 47 3 Image --
1994 4 29 00 -9.7 95.4 985 47 3 Image --
1994 4 29 03 -10.0 95.5 985 47 3 Image --
1994 4 29 06 -10.5 95.7 985 47 3 Image --
1994 4 29 09 -11.1 95.8 985 47 3 Image --
1994 4 29 12 -11.6 95.9 985 47 3 Image --
1994 4 29 15 -12.2 96.0 990 41 3 Image --
1994 4 29 18 -12.4 95.8 990 41 3 Image --
1994 4 29 21 -12.6 95.5 990 41 3 Image --
1994 4 30 00 -12.8 95.2 995 35 3 Image --
1994 4 30 03 -13.1 94.9 995 35 3 Image --
1994 4 30 06 -13.3 94.8 1000 27 2 Image --
1994 4 30 09 -13.5 94.5 1000 27 2 Image --
1994 4 30 12 -13.8 94.2 1000 27 2 Image --
1994 4 30 15 -14.3 93.7 1005 19 2 Image --
1994 4 30 18 -14.9 93.2 1005 19 2 Image --
1994 4 30 21 -15.4 92.7 1005 19 2 Image --
1994 5 1 00 -15.9 92.2 1005 19 2 Image --
1994 5 1 06 -16.6 90.6 1005 19 2 Image --
1994 5 1 12 -16.9 89.2 1005 19 2 Image --
1994 5 1 18 -17.1 88.2 1005 19 2 Image --
1994 5 2 00 -17.3 87.3 1005 19 2 Image --
< Cyclone 199410 1994 Season Cyclone 199501 >

Help